IYA weather

Abbeville Chris Crusta Memorial Airport
Abbeville, Louisiana, United States

Public forecast

Using degrees Fahrenheit for public forecast. Weather courtesy of forecast.io.

Current aviation weather report (METAR) for Abbeville Chris Crusta Memorial Airport

Retrieved 2020/02/17 15:35 UTC (0 seconds ago):

KIYA 171535Z AUTO 10005KT 4SM BR OVC002 16/15 A3001 RMK AO2 T01610148

Closest aviation forecast (TAF) to Abbeville Chris Crusta Memorial Airport

Closest forecast is Acadiana Regional Airport, 11.1 nm (20.5 km) ENE. Retrieved 2020/02/17 15:03 UTC (7 minutes ago):

TAF KARA 171500Z 1715/1812 12007KT 5SM BR OVC004 FM171800 15007KT P6SM VCSH OVC007 TEMPO 1718/1721 3SM -RA BR FM180300 18006KT 4SM BR OVC004 FM180600 18006KT 2SM BR OVC003